sensor_id;sensor_type;location;lat;lon;timestamp;pressure;altitude;pressure_sealevel;temperature;humidity
57900;BME280;60605;53.716;19.940;2022-09-17T00:00:32;98689.78;;;11.27;81.03
57900;BME280;60605;53.716;19.940;2022-09-17T00:06:01;98690.34;;;11.31;81.01
57900;BME280;60605;53.716;19.940;2022-09-17T00:11:26;98690.72;;;11.34;80.88
57900;BME280;60605;53.716;19.940;2022-09-17T00:16:38;98691.14;;;11.36;80.64
57900;BME280;60605;53.716;19.940;2022-09-17T00:21:42;98694.17;;;11.38;80.57
57900;BME280;60605;53.716;19.940;2022-09-17T00:26:47;98697.31;;;11.38;80.50
57900;BME280;60605;53.716;19.940;2022-09-17T00:31:50;98695.84;;;11.39;80.67
57900;BME280;60605;53.716;19.940;2022-09-17T00:36:53;98700.06;;;11.37;80.56
57900;BME280;60605;53.716;19.940;2022-09-17T00:41:56;98698.70;;;11.36;80.57
57900;BME280;60605;53.716;19.940;2022-09-17T00:47:00;98700.30;;;11.33;80.78
57900;BME280;60605;53.716;19.940;2022-09-17T00:52:06;98705.92;;;11.31;80.89
57900;BME280;60605;53.716;19.940;2022-09-17T00:57:11;98711.88;;;11.28;80.87
57900;BME280;60605;53.716;19.940;2022-09-17T01:02:14;98703.45;;;11.24;81.04
57900;BME280;60605;53.716;19.940;2022-09-17T01:17:53;98705.66;;;11.11;81.73
57900;BME280;60605;53.716;19.940;2022-09-17T01:33:59;98713.91;;;11.08;82.11
57900;BME280;60605;53.716;19.940;2022-09-17T01:39:20;98713.63;;;11.08;82.29
57900;BME280;60605;53.716;19.940;2022-09-17T01:44:54;98711.52;;;11.07;82.29
57900;BME280;60605;53.716;19.940;2022-09-17T01:50:06;98708.67;;;11.07;82.49
57900;BME280;60605;53.716;19.940;2022-09-17T01:55:13;98708.67;;;11.07;82.56
57900;BME280;60605;53.716;19.940;2022-09-17T02:00:18;98706.17;;;11.09;82.58
57900;BME280;60605;53.716;19.940;2022-09-17T02:05:33;98706.31;;;11.11;82.40
57900;BME280;60605;53.716;19.940;2022-09-17T02:10:42;98707.14;;;11.11;82.45
57900;BME280;60605;53.716;19.940;2022-09-17T02:15:53;98708.88;;;11.11;82.55
57900;BME280;60605;53.716;19.940;2022-09-17T02:21:10;98713.54;;;11.11;82.59
57900;BME280;60605;53.716;19.940;2022-09-17T02:26:17;98714.15;;;11.12;82.70
57900;BME280;60605;53.716;19.940;2022-09-17T02:31:22;98715.30;;;11.11;82.79
57900;BME280;60605;53.716;19.940;2022-09-17T02:36:26;98716.16;;;11.11;83.00
57900;BME280;60605;53.716;19.940;2022-09-17T02:57:43;98722.20;;;11.05;83.66
57900;BME280;60605;53.716;19.940;2022-09-17T03:08:18;98729.88;;;11.05;84.02
57900;BME280;60605;53.716;19.940;2022-09-17T03:13:23;98728.95;;;11.02;83.89
57900;BME280;60605;53.716;19.940;2022-09-17T03:18:26;98721.02;;;10.95;83.97
57900;BME280;60605;53.716;19.940;2022-09-17T03:23:29;98717.02;;;10.83;84.02
57900;BME280;60605;53.716;19.940;2022-09-17T03:28:32;98718.59;;;10.69;84.39
57900;BME280;60605;53.716;19.940;2022-09-17T03:33:35;98716.55;;;10.59;85.47
57900;BME280;60605;53.716;19.940;2022-09-17T03:38:39;98709.48;;;10.57;85.97
57900;BME280;60605;53.716;19.940;2022-09-17T03:43:42;98710.45;;;10.61;86.26
57900;BME280;60605;53.716;19.940;2022-09-17T03:48:45;98703.65;;;10.62;86.31
57900;BME280;60605;53.716;19.940;2022-09-17T03:53:48;98704.08;;;10.62;86.49
57900;BME280;60605;53.716;19.940;2022-09-17T03:58:55;98703.94;;;10.56;86.83
57900;BME280;60605;53.716;19.940;2022-09-17T04:03:58;98702.00;;;10.47;86.97
57900;BME280;60605;53.716;19.940;2022-09-17T04:09:02;98701.08;;;10.35;87.43
57900;BME280;60605;53.716;19.940;2022-09-17T04:14:07;98697.52;;;10.22;87.73
57900;BME280;60605;53.716;19.940;2022-09-17T04:19:10;98687.54;;;10.10;88.55
57900;BME280;60605;53.716;19.940;2022-09-17T04:24:13;98689.36;;;10.00;89.61
57900;BME280;60605;53.716;19.940;2022-09-17T04:29:16;98685.32;;;9.92;89.97
57900;BME280;60605;53.716;19.940;2022-09-17T04:34:20;98690.74;;;9.86;90.14
57900;BME280;60605;53.716;19.940;2022-09-17T04:39:23;98701.42;;;9.80;90.35
57900;BME280;60605;53.716;19.940;2022-09-17T04:44:26;98704.70;;;9.77;90.74
57900;BME280;60605;53.716;19.940;2022-09-17T04:49:29;98706.30;;;9.74;90.69
57900;BME280;60605;53.716;19.940;2022-09-17T04:54:32;98715.61;;;9.74;90.65
57900;BME280;60605;53.716;19.940;2022-09-17T04:59:35;98721.90;;;9.76;91.08
57900;BME280;60605;53.716;19.940;2022-09-17T05:04:39;98736.34;;;9.81;91.22
57900;BME280;60605;53.716;19.940;2022-09-17T05:09:42;98734.39;;;9.89;91.32
57900;BME280;60605;53.716;19.940;2022-09-17T05:14:45;98730.98;;;10.07;91.27
57900;BME280;60605;53.716;19.940;2022-09-17T05:19:48;98733.05;;;10.63;90.72
57900;BME280;60605;53.716;19.940;2022-09-17T05:24:51;98746.22;;;12.30;87.62
57900;BME280;60605;53.716;19.940;2022-09-17T05:29:56;98749.01;;;13.09;82.45
57900;BME280;60605;53.716;19.940;2022-09-17T05:34:59;98750.21;;;13.71;78.90
57900;BME280;60605;53.716;19.940;2022-09-17T05:40:08;98761.08;;;14.07;75.63
57900;BME280;60605;53.716;19.940;2022-09-17T05:45:12;98764.77;;;13.62;74.87
57900;BME280;60605;53.716;19.940;2022-09-17T05:50:16;98765.88;;;13.30;75.63
57900;BME280;60605;53.716;19.940;2022-09-17T05:55:21;98767.04;;;13.66;75.59
57900;BME280;60605;53.716;19.940;2022-09-17T06:00:24;98770.39;;;14.22;74.64
57900;BME280;60605;53.716;19.940;2022-09-17T06:05:29;98771.37;;;15.70;71.94
57900;BME280;60605;53.716;19.940;2022-09-17T06:10:36;98776.01;;;16.33;67.25
57900;BME280;60605;53.716;19.940;2022-09-17T06:15:40;98777.84;;;16.68;66.13
57900;BME280;60605;53.716;19.940;2022-09-17T06:20:52;98785.30;;;18.75;63.04
57900;BME280;60605;53.716;19.940;2022-09-17T06:25:57;98785.50;;;19.61;57.44
57900;BME280;60605;53.716;19.940;2022-09-17T06:31:03;98788.08;;;18.77;56.33
57900;BME280;60605;53.716;19.940;2022-09-17T06:36:09;98793.66;;;17.59;58.38
57900;BME280;60605;53.716;19.940;2022-09-17T06:41:16;98792.05;;;16.75;61.21
57900;BME280;60605;53.716;19.940;2022-09-17T06:46:19;98784.21;;;16.36;62.68
57900;BME280;60605;53.716;19.940;2022-09-17T06:51:23;98791.36;;;16.79;63.51
57900;BME280;60605;53.716;19.940;2022-09-17T06:56:26;98801.36;;;18.26;60.51
57900;BME280;60605;53.716;19.940;2022-09-17T07:01:29;98805.42;;;17.87;58.78
57900;BME280;60605;53.716;19.940;2022-09-17T07:06:33;98809.71;;;17.03;60.42
57900;BME280;60605;53.716;19.940;2022-09-17T07:11:38;98809.92;;;16.11;62.52
57900;BME280;60605;53.716;19.940;2022-09-17T07:16:41;98809.76;;;15.49;64.87
57900;BME280;60605;53.716;19.940;2022-09-17T07:21:47;98807.84;;;15.28;66.46
57900;BME280;60605;53.716;19.940;2022-09-17T07:26:51;98810.95;;;15.30;67.08
57900;BME280;60605;53.716;19.940;2022-09-17T07:31:54;98812.95;;;15.29;67.18
57900;BME280;60605;53.716;19.940;2022-09-17T07:36:57;98816.17;;;15.33;67.53
57900;BME280;60605;53.716;19.940;2022-09-17T07:42:00;98824.11;;;15.58;67.26
57900;BME280;60605;53.716;19.940;2022-09-17T07:47:05;98830.79;;;16.20;66.64
57900;BME280;60605;53.716;19.940;2022-09-17T07:52:09;98825.50;;;16.74;65.34
57900;BME280;60605;53.716;19.940;2022-09-17T07:57:12;98833.23;;;18.61;62.70
57900;BME280;60605;53.716;19.940;2022-09-17T08:02:15;98839.67;;;21.28;57.04
57900;BME280;60605;53.716;19.940;2022-09-17T08:07:24;98839.98;;;23.48;49.96
57900;BME280;60605;53.716;19.940;2022-09-17T08:12:28;98832.86;;;23.58;47.64
57900;BME280;60605;53.716;19.940;2022-09-17T08:17:31;98838.34;;;24.76;45.08
57900;BME280;60605;53.716;19.940;2022-09-17T08:22:34;98833.19;;;24.50;43.86
57900;BME280;60605;53.716;19.940;2022-09-17T08:27:38;98833.23;;;24.50;43.59
57900;BME280;60605;53.716;19.940;2022-09-17T08:32:41;98831.52;;;27.34;39.16
57900;BME280;60605;53.716;19.940;2022-09-17T08:37:45;98836.16;;;26.78;38.00
57900;BME280;60605;53.716;19.940;2022-09-17T08:42:58;98838.66;;;24.78;40.48
57900;BME280;60605;53.716;19.940;2022-09-17T08:48:04;98847.63;;;23.21;43.85
57900;BME280;60605;53.716;19.940;2022-09-17T09:09:17;98866.63;;;19.66;53.93
57900;BME280;60605;53.716;19.940;2022-09-17T09:14:56;98871.54;;;19.11;55.47
57900;BME280;60605;53.716;19.940;2022-09-17T09:20:02;98870.98;;;18.98;56.92
57900;BME280;60605;53.716;19.940;2022-09-17T09:25:19;98877.38;;;19.04;56.61
57900;BME280;60605;53.716;19.940;2022-09-17T09:30:38;98879.02;;;19.72;56.32
57900;BME280;60605;53.716;19.940;2022-09-17T09:35:45;98880.42;;;19.86;55.66
57900;BME280;60605;53.716;19.940;2022-09-17T09:40:56;98871.67;;;20.46;54.99
57900;BME280;60605;53.716;19.940;2022-09-17T09:46:08;98874.52;;;21.08;53.39
57900;BME280;60605;53.716;19.940;2022-09-17T09:57:14;98877.73;;;20.76;53.12
57900;BME280;60605;53.716;19.940;2022-09-17T10:02:19;98881.52;;;20.21;54.09
57900;BME280;60605;53.716;19.940;2022-09-17T10:07:22;98883.29;;;19.71;55.36
57900;BME280;60605;53.716;19.940;2022-09-17T10:12:26;98873.52;;;19.84;56.57
57900;BME280;60605;53.716;19.940;2022-09-17T10:17:29;98885.36;;;20.70;55.82
57900;BME280;60605;53.716;19.940;2022-09-17T10:22:41;98893.60;;;20.71;53.59
57900;BME280;60605;53.716;19.940;2022-09-17T10:27:47;98899.11;;;20.79;54.33
57900;BME280;60605;53.716;19.940;2022-09-17T10:33:18;98897.95;;;21.17;53.63
57900;BME280;60605;53.716;19.940;2022-09-17T10:38:34;98895.63;;;21.10;52.65
57900;BME280;60605;53.716;19.940;2022-09-17T10:43:39;98895.08;;;20.78;53.18
57900;BME280;60605;53.716;19.940;2022-09-17T10:49:09;98891.34;;;20.58;53.54
57900;BME280;60605;53.716;19.940;2022-09-17T10:54:27;98897.27;;;20.53;54.60
57900;BME280;60605;53.716;19.940;2022-09-17T11:10:39;98909.22;;;20.18;54.35
57900;BME280;60605;53.716;19.940;2022-09-17T11:22:22;98911.20;;;19.80;56.16
57900;BME280;60605;53.716;19.940;2022-09-17T11:27:34;98918.52;;;19.94;56.46
57900;BME280;60605;53.716;19.940;2022-09-17T11:43:35;98940.37;;;19.35;57.85
57900;BME280;60605;53.716;19.940;2022-09-17T11:48:47;98945.75;;;19.02;58.31
57900;BME280;60605;53.716;19.940;2022-09-17T11:53:55;98950.90;;;18.69;59.14
57900;BME280;60605;53.716;19.940;2022-09-17T12:09:28;98945.71;;;19.19;58.63
57900;BME280;60605;53.716;19.940;2022-09-17T12:14:50;98941.95;;;18.85;58.43
57900;BME280;60605;53.716;19.940;2022-09-17T12:20:05;98933.26;;;18.45;60.26
57900;BME280;60605;53.716;19.940;2022-09-17T12:25:12;98922.52;;;18.35;61.27
57900;BME280;60605;53.716;19.940;2022-09-17T12:30:22;98916.88;;;18.35;62.01
57900;BME280;60605;53.716;19.940;2022-09-17T12:46:58;98895.95;;;18.35;62.67
57900;BME280;60605;53.716;19.940;2022-09-17T13:03:14;98883.58;;;18.09;63.38
57900;BME280;60605;53.716;19.940;2022-09-17T13:19:38;98894.17;;;18.60;62.78
57900;BME280;60605;53.716;19.940;2022-09-17T13:24:45;98914.96;;;18.84;62.33
57900;BME280;60605;53.716;19.940;2022-09-17T13:45:30;98921.30;;;18.44;62.25
57900;BME280;60605;53.716;19.940;2022-09-17T13:50:42;98917.70;;;18.26;62.60
57900;BME280;60605;53.716;19.940;2022-09-17T14:01:04;98917.77;;;17.68;64.13
57900;BME280;60605;53.716;19.940;2022-09-17T14:37:57;98946.05;;;13.91;73.73
57900;BME280;60605;53.716;19.940;2022-09-17T14:43:02;98936.80;;;13.56;75.91
57900;BME280;60605;53.716;19.940;2022-09-17T14:48:38;98943.60;;;13.29;78.57
57900;BME280;60605;53.716;19.940;2022-09-17T14:53:42;98947.11;;;13.06;80.78
57900;BME280;60605;53.716;19.940;2022-09-17T14:58:48;98944.25;;;13.01;81.77
57900;BME280;60605;53.716;19.940;2022-09-17T15:09:15;98928.74;;;13.46;84.63
57900;BME280;60605;53.716;19.940;2022-09-17T15:14:28;98926.02;;;13.75;84.51
57900;BME280;60605;53.716;19.940;2022-09-17T15:19:38;98923.21;;;14.10;84.22
57900;BME280;60605;53.716;19.940;2022-09-17T15:30:02;98918.73;;;14.27;82.77
57900;BME280;60605;53.716;19.940;2022-09-17T15:40:45;98923.55;;;13.96;83.33
57900;BME280;60605;53.716;19.940;2022-09-17T15:45:51;98923.90;;;13.66;84.07
57900;BME280;60605;53.716;19.940;2022-09-17T15:51:02;98917.88;;;13.38;84.84
57900;BME280;60605;53.716;19.940;2022-09-17T15:56:07;98914.24;;;13.13;85.52
57900;BME280;60605;53.716;19.940;2022-09-17T16:11:27;98912.77;;;12.52;88.45
57900;BME280;60605;53.716;19.940;2022-09-17T16:16:35;98913.22;;;12.37;89.15
57900;BME280;60605;53.716;19.940;2022-09-17T16:21:39;98905.55;;;12.27;90.12
57900;BME280;60605;53.716;19.940;2022-09-17T16:26:42;98903.54;;;12.19;90.90
57900;BME280;60605;53.716;19.940;2022-09-17T16:31:46;98902.59;;;12.13;91.72
57900;BME280;60605;53.716;19.940;2022-09-17T16:36:51;98903.71;;;12.03;92.26
57900;BME280;60605;53.716;19.940;2022-09-17T16:41:55;98897.84;;;11.91;92.59
57900;BME280;60605;53.716;19.940;2022-09-17T16:46:59;98892.77;;;11.77;93.43
57900;BME280;60605;53.716;19.940;2022-09-17T16:52:02;98900.34;;;11.63;93.65
57900;BME280;60605;53.716;19.940;2022-09-17T16:57:06;98916.63;;;11.47;94.02
57900;BME280;60605;53.716;19.940;2022-09-17T17:02:10;98925.10;;;11.30;94.32
57900;BME280;60605;53.716;19.940;2022-09-17T17:07:13;98929.19;;;11.11;94.71
57900;BME280;60605;53.716;19.940;2022-09-17T17:12:17;98931.92;;;10.95;95.42
57900;BME280;60605;53.716;19.940;2022-09-17T17:17:21;98940.24;;;10.81;96.27
57900;BME280;60605;53.716;19.940;2022-09-17T17:22:24;98943.70;;;10.71;97.20
57900;BME280;60605;53.716;19.940;2022-09-17T17:27:29;98950.73;;;10.64;97.82
57900;BME280;60605;53.716;19.940;2022-09-17T17:32:35;98961.83;;;10.56;98.05
57900;BME280;60605;53.716;19.940;2022-09-17T17:37:39;98971.29;;;10.51;98.42
57900;BME280;60605;53.716;19.940;2022-09-17T17:42:43;98974.94;;;10.49;98.91
57900;BME280;60605;53.716;19.940;2022-09-17T17:47:52;98971.75;;;10.51;99.68
57900;BME280;60605;53.716;19.940;2022-09-17T17:52:56;98974.72;;;10.53;99.93
57900;BME280;60605;53.716;19.940;2022-09-17T17:58:01;98971.48;;;10.55;100.00
57900;BME280;60605;53.716;19.940;2022-09-17T18:03:08;98980.66;;;10.54;100.00
57900;BME280;60605;53.716;19.940;2022-09-17T18:08:12;98991.27;;;10.55;100.00
57900;BME280;60605;53.716;19.940;2022-09-17T18:13:16;99002.88;;;10.57;100.00
57900;BME280;60605;53.716;19.940;2022-09-17T18:18:21;99002.89;;;10.55;100.00
57900;BME280;60605;53.716;19.940;2022-09-17T18:23:27;98999.30;;;10.52;100.00
57900;BME280;60605;53.716;19.940;2022-09-17T18:28:35;98996.08;;;10.49;100.00
57900;BME280;60605;53.716;19.940;2022-09-17T18:33:39;98992.91;;;10.45;100.00
57900;BME280;60605;53.716;19.940;2022-09-17T18:38:44;98991.98;;;10.40;100.00
57900;BME280;60605;53.716;19.940;2022-09-17T18:43:48;98991.04;;;10.38;100.00
57900;BME280;60605;53.716;19.940;2022-09-17T18:48:53;98987.04;;;10.34;100.00
57900;BME280;60605;53.716;19.940;2022-09-17T18:53:57;98983.31;;;10.31;100.00
57900;BME280;60605;53.716;19.940;2022-09-17T18:59:01;98988.28;;;10.27;100.00
57900;BME280;60605;53.716;19.940;2022-09-17T19:04:10;98995.19;;;10.24;100.00
57900;BME280;60605;53.716;19.940;2022-09-17T19:09:13;98991.36;;;10.25;100.00
57900;BME280;60605;53.716;19.940;2022-09-17T19:14:18;98981.12;;;10.26;100.00
57900;BME280;60605;53.716;19.940;2022-09-17T19:19:21;98976.10;;;10.26;100.00
57900;BME280;60605;53.716;19.940;2022-09-17T19:24:25;98973.90;;;10.25;100.00
57900;BME280;60605;53.716;19.940;2022-09-17T19:29:30;98970.96;;;10.21;100.00
57900;BME280;60605;53.716;19.940;2022-09-17T19:34:35;98968.69;;;10.15;100.00
57900;BME280;60605;53.716;19.940;2022-09-17T19:39:43;98966.12;;;10.08;100.00
57900;BME280;60605;53.716;19.940;2022-09-17T19:44:50;98960.81;;;10.01;100.00
57900;BME280;60605;53.716;19.940;2022-09-17T19:49:54;98954.20;;;9.96;100.00
57900;BME280;60605;53.716;19.940;2022-09-17T19:55:00;98955.71;;;9.87;100.00
57900;BME280;60605;53.716;19.940;2022-09-17T20:00:06;98959.54;;;9.78;100.00
57900;BME280;60605;53.716;19.940;2022-09-17T20:05:20;98959.80;;;9.67;100.00
57900;BME280;60605;53.716;19.940;2022-09-17T20:10:25;98966.00;;;9.60;100.00
57900;BME280;60605;53.716;19.940;2022-09-17T20:15:40;98973.68;;;9.57;100.00
57900;BME280;60605;53.716;19.940;2022-09-17T20:20:48;98980.34;;;9.56;100.00
57900;BME280;60605;53.716;19.940;2022-09-17T20:25:52;98990.55;;;9.57;100.00
57900;BME280;60605;53.716;19.940;2022-09-17T20:31:05;98991.60;;;9.57;100.00
57900;BME280;60605;53.716;19.940;2022-09-17T20:36:14;98993.39;;;9.53;100.00
57900;BME280;60605;53.716;19.940;2022-09-17T20:41:18;98990.04;;;9.49;100.00
57900;BME280;60605;53.716;19.940;2022-09-17T20:46:23;98995.43;;;9.46;100.00
57900;BME280;60605;53.716;19.940;2022-09-17T20:51:31;98996.70;;;9.43;100.00
57900;BME280;60605;53.716;19.940;2022-09-17T20:56:36;98993.60;;;9.39;100.00
57900;BME280;60605;53.716;19.940;2022-09-17T21:01:45;98989.13;;;9.34;100.00
57900;BME280;60605;53.716;19.940;2022-09-17T21:06:51;98987.11;;;9.30;100.00
57900;BME280;60605;53.716;19.940;2022-09-17T21:11:56;98980.41;;;9.26;100.00
57900;BME280;60605;53.716;19.940;2022-09-17T21:17:00;98988.57;;;9.21;100.00
57900;BME280;60605;53.716;19.940;2022-09-17T21:22:03;98994.68;;;9.14;100.00
57900;BME280;60605;53.716;19.940;2022-09-17T21:27:07;98993.13;;;9.09;100.00
57900;BME280;60605;53.716;19.940;2022-09-17T21:32:11;98990.94;;;9.05;100.00
57900;BME280;60605;53.716;19.940;2022-09-17T21:37:14;98985.21;;;9.02;100.00
57900;BME280;60605;53.716;19.940;2022-09-17T21:42:17;98981.78;;;9.01;100.00
57900;BME280;60605;53.716;19.940;2022-09-17T21:47:20;98986.26;;;8.99;100.00
57900;BME280;60605;53.716;19.940;2022-09-17T21:52:23;98986.23;;;8.96;100.00
57900;BME280;60605;53.716;19.940;2022-09-17T21:57:27;98980.11;;;8.92;100.00
57900;BME280;60605;53.716;19.940;2022-09-17T22:02:30;98978.60;;;8.88;100.00
57900;BME280;60605;53.716;19.940;2022-09-17T22:07:56;98973.61;;;8.83;100.00
57900;BME280;60605;53.716;19.940;2022-09-17T22:13:00;98973.05;;;8.81;100.00
57900;BME280;60605;53.716;19.940;2022-09-17T22:18:03;98969.29;;;8.79;100.00
57900;BME280;60605;53.716;19.940;2022-09-17T22:23:13;98973.58;;;8.74;100.00
57900;BME280;60605;53.716;19.940;2022-09-17T22:28:16;98971.77;;;8.70;100.00
57900;BME280;60605;53.716;19.940;2022-09-17T22:33:23;98968.83;;;8.68;100.00
57900;BME280;60605;53.716;19.940;2022-09-17T22:38:28;98964.02;;;8.68;100.00
57900;BME280;60605;53.716;19.940;2022-09-17T22:43:32;98957.22;;;8.66;100.00
57900;BME280;60605;53.716;19.940;2022-09-17T22:48:35;98952.91;;;8.67;100.00
57900;BME280;60605;53.716;19.940;2022-09-17T22:53:40;98951.69;;;8.64;100.00
57900;BME280;60605;53.716;19.940;2022-09-17T22:58:44;98948.41;;;8.58;100.00
57900;BME280;60605;53.716;19.940;2022-09-17T23:03:50;98944.98;;;8.52;100.00
57900;BME280;60605;53.716;19.940;2022-09-17T23:08:53;98945.46;;;8.48;100.00
57900;BME280;60605;53.716;19.940;2022-09-17T23:13:59;98944.42;;;8.43;100.00
57900;BME280;60605;53.716;19.940;2022-09-17T23:19:06;98944.48;;;8.41;100.00
57900;BME280;60605;53.716;19.940;2022-09-17T23:24:16;98941.73;;;8.43;100.00
57900;BME280;60605;53.716;19.940;2022-09-17T23:29:20;98945.44;;;8.50;100.00
57900;BME280;60605;53.716;19.940;2022-09-17T23:34:23;98945.11;;;8.56;100.00
57900;BME280;60605;53.716;19.940;2022-09-17T23:39:26;98947.39;;;8.62;100.00
57900;BME280;60605;53.716;19.940;2022-09-17T23:44:29;98944.27;;;8.66;100.00
57900;BME280;60605;53.716;19.940;2022-09-17T23:49:33;98935.28;;;8.68;100.00
57900;BME280;60605;53.716;19.940;2022-09-17T23:54:36;98930.61;;;8.69;100.00
57900;BME280;60605;53.716;19.940;2022-09-17T23:59:39;98930.88;;;8.68;100.00
